sensor_id;sensor_type;location;lat;lon;timestamp;P1;durP1;ratioP1;P2;durP2;ratioP2
12792;SDS011;6460;42.684;23.260;2024-03-02T00:01:05;22.83;;;15.37;;
12792;SDS011;6460;42.684;23.260;2024-03-02T00:03:33;24.77;;;15.33;;
12792;SDS011;6460;42.684;23.260;2024-03-02T00:06:01;24.70;;;15.43;;
12792;SDS011;6460;42.684;23.260;2024-03-02T00:08:31;25.83;;;16.53;;
12792;SDS011;6460;42.684;23.260;2024-03-02T00:10:59;21.67;;;15.57;;
12792;SDS011;6460;42.684;23.260;2024-03-02T00:13:28;24.23;;;15.27;;
12792;SDS011;6460;42.684;23.260;2024-03-02T00:15:57;23.40;;;16.07;;
12792;SDS011;6460;42.684;23.260;2024-03-02T00:18:26;26.20;;;16.30;;
12792;SDS011;6460;42.684;23.260;2024-03-02T00:20:57;23.20;;;16.57;;
12792;SDS011;6460;42.684;23.260;2024-03-02T00:23:27;25.57;;;16.70;;
12792;SDS011;6460;42.684;23.260;2024-03-02T00:25:58;25.93;;;14.83;;
12792;SDS011;6460;42.684;23.260;2024-03-02T00:28:27;23.80;;;15.27;;
12792;SDS011;6460;42.684;23.260;2024-03-02T00:30:59;24.27;;;15.40;;
12792;SDS011;6460;42.684;23.260;2024-03-02T00:33:31;23.83;;;14.47;;
12792;SDS011;6460;42.684;23.260;2024-03-02T00:36:01;24.70;;;15.50;;
12792;SDS011;6460;42.684;23.260;2024-03-02T00:38:31;24.30;;;16.70;;
12792;SDS011;6460;42.684;23.260;2024-03-02T00:41:03;26.50;;;16.30;;
12792;SDS011;6460;42.684;23.260;2024-03-02T00:46:24;25.47;;;14.90;;
12792;SDS011;6460;42.684;23.260;2024-03-02T00:48:53;24.67;;;16.03;;
12792;SDS011;6460;42.684;23.260;2024-03-02T00:51:23;25.70;;;16.83;;
12792;SDS011;6460;42.684;23.260;2024-03-02T00:53:51;30.57;;;18.20;;
12792;SDS011;6460;42.684;23.260;2024-03-02T00:56:23;26.77;;;15.83;;
12792;SDS011;6460;42.684;23.260;2024-03-02T00:58:52;27.33;;;17.07;;
12792;SDS011;6460;42.684;23.260;2024-03-02T01:01:20;30.77;;;18.13;;
12792;SDS011;6460;42.684;23.260;2024-03-02T01:03:48;25.27;;;16.90;;
12792;SDS011;6460;42.684;23.260;2024-03-02T01:06:16;27.20;;;17.23;;
12792;SDS011;6460;42.684;23.260;2024-03-02T01:08:45;23.90;;;16.53;;
12792;SDS011;6460;42.684;23.260;2024-03-02T01:11:16;26.73;;;17.50;;
12792;SDS011;6460;42.684;23.260;2024-03-02T01:13:47;28.90;;;17.37;;
12792;SDS011;6460;42.684;23.260;2024-03-02T01:16:15;26.10;;;17.50;;
12792;SDS011;6460;42.684;23.260;2024-03-02T01:18:43;22.57;;;15.30;;
12792;SDS011;6460;42.684;23.260;2024-03-02T01:21:11;27.40;;;17.33;;
12792;SDS011;6460;42.684;23.260;2024-03-02T01:23:39;25.77;;;17.47;;
12792;SDS011;6460;42.684;23.260;2024-03-02T01:26:07;29.03;;;16.90;;
12792;SDS011;6460;42.684;23.260;2024-03-02T01:28:34;27.97;;;17.23;;
12792;SDS011;6460;42.684;23.260;2024-03-02T01:31:04;27.90;;;17.77;;
12792;SDS011;6460;42.684;23.260;2024-03-02T01:33:32;28.87;;;18.67;;
12792;SDS011;6460;42.684;23.260;2024-03-02T01:36:00;25.63;;;16.73;;
12792;SDS011;6460;42.684;23.260;2024-03-02T01:38:28;25.80;;;17.90;;
12792;SDS011;6460;42.684;23.260;2024-03-02T01:40:57;25.67;;;16.97;;
12792;SDS011;6460;42.684;23.260;2024-03-02T01:43:25;25.90;;;16.57;;
12792;SDS011;6460;42.684;23.260;2024-03-02T01:45:53;23.17;;;15.43;;
12792;SDS011;6460;42.684;23.260;2024-03-02T01:48:23;23.70;;;14.80;;
12792;SDS011;6460;42.684;23.260;2024-03-02T01:50:51;21.40;;;13.80;;
12792;SDS011;6460;42.684;23.260;2024-03-02T01:53:19;21.83;;;15.30;;
12792;SDS011;6460;42.684;23.260;2024-03-02T01:55:48;31.20;;;17.27;;
12792;SDS011;6460;42.684;23.260;2024-03-02T01:58:16;25.83;;;16.27;;
12792;SDS011;6460;42.684;23.260;2024-03-02T02:00:44;28.67;;;17.43;;
12792;SDS011;6460;42.684;23.260;2024-03-02T02:03:11;30.13;;;18.17;;
12792;SDS011;6460;42.684;23.260;2024-03-02T02:05:41;31.30;;;19.20;;
12792;SDS011;6460;42.684;23.260;2024-03-02T02:08:09;27.50;;;18.57;;
12792;SDS011;6460;42.684;23.260;2024-03-02T02:10:37;29.90;;;18.03;;
12792;SDS011;6460;42.684;23.260;2024-03-02T02:13:05;28.43;;;18.80;;
12792;SDS011;6460;42.684;23.260;2024-03-02T02:15:34;28.50;;;18.60;;
12792;SDS011;6460;42.684;23.260;2024-03-02T02:18:02;30.53;;;19.93;;
12792;SDS011;6460;42.684;23.260;2024-03-02T02:20:30;31.70;;;21.60;;
12792;SDS011;6460;42.684;23.260;2024-03-02T02:23:00;34.80;;;21.43;;
12792;SDS011;6460;42.684;23.260;2024-03-02T02:25:29;34.17;;;22.33;;
12792;SDS011;6460;42.684;23.260;2024-03-02T02:27:57;34.93;;;21.47;;
12792;SDS011;6460;42.684;23.260;2024-03-02T02:30:26;35.77;;;22.70;;
12792;SDS011;6460;42.684;23.260;2024-03-02T02:32:55;35.20;;;22.93;;
12792;SDS011;6460;42.684;23.260;2024-03-02T02:35:23;37.67;;;23.30;;
12792;SDS011;6460;42.684;23.260;2024-03-02T02:37:50;35.83;;;23.07;;
12792;SDS011;6460;42.684;23.260;2024-03-02T02:40:22;37.07;;;23.63;;
12792;SDS011;6460;42.684;23.260;2024-03-02T02:42:50;37.50;;;23.80;;
12792;SDS011;6460;42.684;23.260;2024-03-02T02:45:18;37.63;;;24.60;;
12792;SDS011;6460;42.684;23.260;2024-03-02T02:47:47;36.43;;;23.60;;
12792;SDS011;6460;42.684;23.260;2024-03-02T02:50:15;37.63;;;23.60;;
12792;SDS011;6460;42.684;23.260;2024-03-02T02:52:43;34.70;;;22.70;;
12792;SDS011;6460;42.684;23.260;2024-03-02T02:55:11;37.03;;;23.90;;
12792;SDS011;6460;42.684;23.260;2024-03-02T02:57:42;39.57;;;24.63;;
12792;SDS011;6460;42.684;23.260;2024-03-02T03:00:11;34.23;;;23.17;;
12792;SDS011;6460;42.684;23.260;2024-03-02T03:02:41;38.40;;;24.37;;
12792;SDS011;6460;42.684;23.260;2024-03-02T03:05:10;37.70;;;22.73;;
12792;SDS011;6460;42.684;23.260;2024-03-02T03:07:39;37.63;;;24.03;;
12792;SDS011;6460;42.684;23.260;2024-03-02T03:10:09;37.90;;;23.00;;
12792;SDS011;6460;42.684;23.260;2024-03-02T03:12:36;40.27;;;24.20;;
12792;SDS011;6460;42.684;23.260;2024-03-02T03:15:08;41.23;;;24.37;;
12792;SDS011;6460;42.684;23.260;2024-03-02T03:17:37;40.10;;;24.60;;
12792;SDS011;6460;42.684;23.260;2024-03-02T03:20:06;38.97;;;24.20;;
12792;SDS011;6460;42.684;23.260;2024-03-02T03:22:36;36.87;;;23.67;;
12792;SDS011;6460;42.684;23.260;2024-03-02T03:25:04;39.70;;;23.87;;
12792;SDS011;6460;42.684;23.260;2024-03-02T03:27:33;42.47;;;25.40;;
12792;SDS011;6460;42.684;23.260;2024-03-02T03:30:01;41.47;;;24.93;;
12792;SDS011;6460;42.684;23.260;2024-03-02T03:32:33;38.73;;;24.37;;
12792;SDS011;6460;42.684;23.260;2024-03-02T03:35:01;40.47;;;24.60;;
12792;SDS011;6460;42.684;23.260;2024-03-02T03:37:29;39.27;;;24.87;;
12792;SDS011;6460;42.684;23.260;2024-03-02T03:39:58;43.20;;;24.83;;
12792;SDS011;6460;42.684;23.260;2024-03-02T03:42:26;38.93;;;25.27;;
12792;SDS011;6460;42.684;23.260;2024-03-02T03:44:54;39.23;;;25.10;;
12792;SDS011;6460;42.684;23.260;2024-03-02T03:47:22;41.03;;;24.20;;
12792;SDS011;6460;42.684;23.260;2024-03-02T03:49:51;41.37;;;24.27;;
12792;SDS011;6460;42.684;23.260;2024-03-02T03:52:19;40.80;;;25.43;;
12792;SDS011;6460;42.684;23.260;2024-03-02T03:54:48;38.10;;;24.83;;
12792;SDS011;6460;42.684;23.260;2024-03-02T03:57:16;39.30;;;25.00;;
12792;SDS011;6460;42.684;23.260;2024-03-02T03:59:44;38.37;;;23.87;;
12792;SDS011;6460;42.684;23.260;2024-03-02T04:02:12;40.83;;;25.63;;
12792;SDS011;6460;42.684;23.260;2024-03-02T04:04:40;39.03;;;24.90;;
12792;SDS011;6460;42.684;23.260;2024-03-02T04:07:10;42.27;;;25.70;;
12792;SDS011;6460;42.684;23.260;2024-03-02T04:09:37;38.00;;;24.67;;
12792;SDS011;6460;42.684;23.260;2024-03-02T04:12:05;38.77;;;24.20;;
12792;SDS011;6460;42.684;23.260;2024-03-02T04:14:33;37.77;;;24.27;;
12792;SDS011;6460;42.684;23.260;2024-03-02T04:17:03;37.83;;;24.03;;
12792;SDS011;6460;42.684;23.260;2024-03-02T04:19:31;38.97;;;24.00;;
12792;SDS011;6460;42.684;23.260;2024-03-02T04:21:59;39.37;;;24.00;;
12792;SDS011;6460;42.684;23.260;2024-03-02T04:24:29;38.37;;;23.70;;
12792;SDS011;6460;42.684;23.260;2024-03-02T04:26:57;39.33;;;24.10;;
12792;SDS011;6460;42.684;23.260;2024-03-02T04:29:24;38.73;;;24.17;;
12792;SDS011;6460;42.684;23.260;2024-03-02T04:31:52;41.33;;;24.40;;
12792;SDS011;6460;42.684;23.260;2024-03-02T04:34:20;36.17;;;24.10;;
12792;SDS011;6460;42.684;23.260;2024-03-02T04:36:48;40.23;;;25.10;;
12792;SDS011;6460;42.684;23.260;2024-03-02T04:39:16;41.93;;;26.00;;
12792;SDS011;6460;42.684;23.260;2024-03-02T04:41:46;43.23;;;24.13;;
12792;SDS011;6460;42.684;23.260;2024-03-02T04:44:14;41.23;;;25.40;;
12792;SDS011;6460;42.684;23.260;2024-03-02T04:46:41;41.90;;;25.87;;
12792;SDS011;6460;42.684;23.260;2024-03-02T04:49:09;40.07;;;25.67;;
12792;SDS011;6460;42.684;23.260;2024-03-02T04:51:37;42.30;;;25.77;;
12792;SDS011;6460;42.684;23.260;2024-03-02T04:54:05;45.43;;;26.23;;
12792;SDS011;6460;42.684;23.260;2024-03-02T04:56:32;42.00;;;25.43;;
12792;SDS011;6460;42.684;23.260;2024-03-02T04:59:11;41.67;;;24.53;;
12792;SDS011;6460;42.684;23.260;2024-03-02T05:01:39;40.50;;;25.10;;
12792;SDS011;6460;42.684;23.260;2024-03-02T05:04:06;38.87;;;25.50;;
12792;SDS011;6460;42.684;23.260;2024-03-02T05:06:37;36.97;;;24.03;;
12792;SDS011;6460;42.684;23.260;2024-03-02T05:09:06;41.30;;;26.13;;
12792;SDS011;6460;42.684;23.260;2024-03-02T05:11:34;43.17;;;25.00;;
12792;SDS011;6460;42.684;23.260;2024-03-02T05:14:28;40.40;;;25.20;;
12792;SDS011;6460;42.684;23.260;2024-03-02T05:16:56;39.17;;;24.97;;
12792;SDS011;6460;42.684;23.260;2024-03-02T05:19:23;38.00;;;24.77;;
12792;SDS011;6460;42.684;23.260;2024-03-02T05:21:50;41.37;;;25.53;;
12792;SDS011;6460;42.684;23.260;2024-03-02T05:24:17;41.13;;;25.00;;
12792;SDS011;6460;42.684;23.260;2024-03-02T05:26:45;39.20;;;24.63;;
12792;SDS011;6460;42.684;23.260;2024-03-02T05:29:13;43.67;;;24.97;;
12792;SDS011;6460;42.684;23.260;2024-03-02T05:31:42;40.67;;;26.23;;
12792;SDS011;6460;42.684;23.260;2024-03-02T05:34:09;41.07;;;26.00;;
12792;SDS011;6460;42.684;23.260;2024-03-02T05:36:37;43.83;;;26.10;;
12792;SDS011;6460;42.684;23.260;2024-03-02T05:39:04;40.03;;;25.73;;
12792;SDS011;6460;42.684;23.260;2024-03-02T05:41:35;41.40;;;25.00;;
12792;SDS011;6460;42.684;23.260;2024-03-02T05:44:03;41.87;;;26.23;;
12792;SDS011;6460;42.684;23.260;2024-03-02T05:46:31;38.97;;;25.30;;
12792;SDS011;6460;42.684;23.260;2024-03-02T05:49:00;40.03;;;26.13;;
12792;SDS011;6460;42.684;23.260;2024-03-02T05:51:27;39.67;;;25.70;;
12792;SDS011;6460;42.684;23.260;2024-03-02T05:53:55;43.20;;;26.17;;
12792;SDS011;6460;42.684;23.260;2024-03-02T05:56:22;43.07;;;26.47;;
12792;SDS011;6460;42.684;23.260;2024-03-02T05:58:49;43.70;;;25.37;;
12792;SDS011;6460;42.684;23.260;2024-03-02T06:01:32;41.87;;;24.80;;
12792;SDS011;6460;42.684;23.260;2024-03-02T06:04:02;42.27;;;25.40;;
12792;SDS011;6460;42.684;23.260;2024-03-02T06:06:30;41.17;;;24.80;;
12792;SDS011;6460;42.684;23.260;2024-03-02T06:08:59;40.93;;;26.57;;
12792;SDS011;6460;42.684;23.260;2024-03-02T06:11:28;35.57;;;23.63;;
12792;SDS011;6460;42.684;23.260;2024-03-02T06:13:56;39.43;;;26.07;;
12792;SDS011;6460;42.684;23.260;2024-03-02T06:16:24;42.07;;;26.37;;
12792;SDS011;6460;42.684;23.260;2024-03-02T06:18:52;41.33;;;25.70;;
12792;SDS011;6460;42.684;23.260;2024-03-02T06:21:21;43.40;;;25.67;;
12792;SDS011;6460;42.684;23.260;2024-03-02T06:23:49;42.53;;;26.70;;
12792;SDS011;6460;42.684;23.260;2024-03-02T06:26:17;43.73;;;26.20;;
12792;SDS011;6460;42.684;23.260;2024-03-02T06:28:46;43.17;;;26.40;;
12792;SDS011;6460;42.684;23.260;2024-03-02T06:31:14;41.03;;;26.27;;
12792;SDS011;6460;42.684;23.260;2024-03-02T06:33:42;45.00;;;28.10;;
12792;SDS011;6460;42.684;23.260;2024-03-02T06:36:10;43.83;;;27.20;;
12792;SDS011;6460;42.684;23.260;2024-03-02T06:38:39;44.70;;;28.23;;
12792;SDS011;6460;42.684;23.260;2024-03-02T06:41:07;41.07;;;27.93;;
12792;SDS011;6460;42.684;23.260;2024-03-02T06:43:34;43.43;;;29.73;;
12792;SDS011;6460;42.684;23.260;2024-03-02T06:46:01;46.67;;;32.17;;
12792;SDS011;6460;42.684;23.260;2024-03-02T06:48:30;53.67;;;33.50;;
12792;SDS011;6460;42.684;23.260;2024-03-02T06:50:58;49.67;;;32.83;;
12792;SDS011;6460;42.684;23.260;2024-03-02T06:53:26;51.33;;;33.13;;
12792;SDS011;6460;42.684;23.260;2024-03-02T06:55:57;51.43;;;32.27;;
12792;SDS011;6460;42.684;23.260;2024-03-02T06:58:25;50.03;;;32.10;;
12792;SDS011;6460;42.684;23.260;2024-03-02T07:00:52;49.63;;;31.90;;
12792;SDS011;6460;42.684;23.260;2024-03-02T07:03:20;53.20;;;32.33;;
12792;SDS011;6460;42.684;23.260;2024-03-02T07:05:48;49.50;;;32.43;;
12792;SDS011;6460;42.684;23.260;2024-03-02T07:08:17;46.53;;;30.73;;
12792;SDS011;6460;42.684;23.260;2024-03-02T07:10:44;48.50;;;30.60;;
12792;SDS011;6460;42.684;23.260;2024-03-02T07:13:14;46.17;;;29.77;;
12792;SDS011;6460;42.684;23.260;2024-03-02T07:15:42;47.80;;;30.33;;
12792;SDS011;6460;42.684;23.260;2024-03-02T07:18:25;43.40;;;28.00;;
12792;SDS011;6460;42.684;23.260;2024-03-02T07:20:52;44.03;;;27.73;;
12792;SDS011;6460;42.684;23.260;2024-03-02T07:23:21;44.13;;;29.07;;
12792;SDS011;6460;42.684;23.260;2024-03-02T07:25:52;41.93;;;26.87;;
12792;SDS011;6460;42.684;23.260;2024-03-02T07:28:23;36.93;;;24.73;;
12792;SDS011;6460;42.684;23.260;2024-03-02T07:30:57;33.10;;;22.97;;
12792;SDS011;6460;42.684;23.260;2024-03-02T07:33:26;34.00;;;22.33;;
12792;SDS011;6460;42.684;23.260;2024-03-02T07:35:54;36.03;;;23.03;;
12792;SDS011;6460;42.684;23.260;2024-03-02T07:38:22;32.57;;;20.00;;
12792;SDS011;6460;42.684;23.260;2024-03-02T07:40:50;35.40;;;22.73;;
12792;SDS011;6460;42.684;23.260;2024-03-02T07:43:18;37.37;;;22.67;;
12792;SDS011;6460;42.684;23.260;2024-03-02T07:45:49;35.47;;;22.07;;
12792;SDS011;6460;42.684;23.260;2024-03-02T07:48:16;34.77;;;21.97;;
12792;SDS011;6460;42.684;23.260;2024-03-02T07:50:44;35.73;;;21.60;;
12792;SDS011;6460;42.684;23.260;2024-03-02T07:53:12;32.63;;;21.50;;
12792;SDS011;6460;42.684;23.260;2024-03-02T07:55:40;39.03;;;22.60;;
12792;SDS011;6460;42.684;23.260;2024-03-02T07:58:09;34.63;;;22.53;;
12792;SDS011;6460;42.684;23.260;2024-03-02T08:00:38;38.67;;;22.60;;
12792;SDS011;6460;42.684;23.260;2024-03-02T08:03:08;36.70;;;21.47;;
12792;SDS011;6460;42.684;23.260;2024-03-02T08:05:36;31.87;;;20.93;;
12792;SDS011;6460;42.684;23.260;2024-03-02T08:08:05;34.23;;;21.80;;
12792;SDS011;6460;42.684;23.260;2024-03-02T08:10:33;34.67;;;21.17;;
12792;SDS011;6460;42.684;23.260;2024-03-02T08:13:01;37.03;;;23.20;;
12792;SDS011;6460;42.684;23.260;2024-03-02T08:15:29;37.67;;;22.23;;
12792;SDS011;6460;42.684;23.260;2024-03-02T08:17:56;35.67;;;22.43;;
12792;SDS011;6460;42.684;23.260;2024-03-02T08:20:25;33.60;;;21.97;;
12792;SDS011;6460;42.684;23.260;2024-03-02T08:22:52;37.77;;;21.93;;
12792;SDS011;6460;42.684;23.260;2024-03-02T08:25:20;36.47;;;22.40;;
12792;SDS011;6460;42.684;23.260;2024-03-02T08:27:48;36.10;;;22.10;;
12792;SDS011;6460;42.684;23.260;2024-03-02T08:30:16;36.93;;;22.67;;
12792;SDS011;6460;42.684;23.260;2024-03-02T08:32:43;35.80;;;21.83;;
12792;SDS011;6460;42.684;23.260;2024-03-02T08:35:12;33.63;;;21.77;;
12792;SDS011;6460;42.684;23.260;2024-03-02T08:37:41;34.93;;;22.23;;
12792;SDS011;6460;42.684;23.260;2024-03-02T08:40:10;37.27;;;22.03;;
12792;SDS011;6460;42.684;23.260;2024-03-02T08:42:38;32.07;;;21.03;;
12792;SDS011;6460;42.684;23.260;2024-03-02T08:45:05;34.70;;;22.10;;
12792;SDS011;6460;42.684;23.260;2024-03-02T08:47:33;33.80;;;22.03;;
12792;SDS011;6460;42.684;23.260;2024-03-02T08:50:01;35.53;;;21.70;;
12792;SDS011;6460;42.684;23.260;2024-03-02T08:52:30;31.73;;;20.93;;
12792;SDS011;6460;42.684;23.260;2024-03-02T08:54:59;38.07;;;23.40;;
12792;SDS011;6460;42.684;23.260;2024-03-02T08:57:26;32.33;;;20.70;;
12792;SDS011;6460;42.684;23.260;2024-03-02T08:59:53;31.20;;;20.47;;
12792;SDS011;6460;42.684;23.260;2024-03-02T09:02:21;33.30;;;21.90;;
12792;SDS011;6460;42.684;23.260;2024-03-02T09:04:50;30.97;;;20.33;;
12792;SDS011;6460;42.684;23.260;2024-03-02T09:07:17;32.00;;;20.63;;
12792;SDS011;6460;42.684;23.260;2024-03-02T09:09:45;36.23;;;21.23;;
12792;SDS011;6460;42.684;23.260;2024-03-02T09:12:14;33.47;;;20.60;;
12792;SDS011;6460;42.684;23.260;2024-03-02T09:14:41;31.40;;;20.47;;
12792;SDS011;6460;42.684;23.260;2024-03-02T09:17:09;30.67;;;20.17;;
12792;SDS011;6460;42.684;23.260;2024-03-02T09:19:37;31.60;;;20.20;;
12792;SDS011;6460;42.684;23.260;2024-03-02T09:22:05;33.03;;;20.17;;
12792;SDS011;6460;42.684;23.260;2024-03-02T09:24:32;31.73;;;20.50;;
12792;SDS011;6460;42.684;23.260;2024-03-02T09:26:59;30.30;;;19.13;;
12792;SDS011;6460;42.684;23.260;2024-03-02T09:29:28;33.30;;;20.40;;
12792;SDS011;6460;42.684;23.260;2024-03-02T09:31:56;33.77;;;20.83;;
12792;SDS011;6460;42.684;23.260;2024-03-02T09:34:23;31.40;;;19.83;;
12792;SDS011;6460;42.684;23.260;2024-03-02T09:36:50;31.13;;;20.07;;
12792;SDS011;6460;42.684;23.260;2024-03-02T09:39:18;31.83;;;18.83;;
12792;SDS011;6460;42.684;23.260;2024-03-02T09:41:47;29.53;;;19.03;;
12792;SDS011;6460;42.684;23.260;2024-03-02T09:44:15;30.23;;;20.77;;
12792;SDS011;6460;42.684;23.260;2024-03-02T09:46:43;32.80;;;19.87;;
12792;SDS011;6460;42.684;23.260;2024-03-02T09:49:15;33.00;;;20.07;;
12792;SDS011;6460;42.684;23.260;2024-03-02T09:51:43;30.67;;;19.20;;
12792;SDS011;6460;42.684;23.260;2024-03-02T09:54:14;35.10;;;21.17;;
12792;SDS011;6460;42.684;23.260;2024-03-02T09:56:42;29.43;;;19.43;;
12792;SDS011;6460;42.684;23.260;2024-03-02T09:59:10;30.40;;;19.40;;
12792;SDS011;6460;42.684;23.260;2024-03-02T10:01:52;28.70;;;19.73;;
12792;SDS011;6460;42.684;23.260;2024-03-02T10:04:24;31.37;;;19.13;;
12792;SDS011;6460;42.684;23.260;2024-03-02T10:06:54;29.10;;;19.13;;
12792;SDS011;6460;42.684;23.260;2024-03-02T10:09:38;26.80;;;18.67;;
12792;SDS011;6460;42.684;23.260;2024-03-02T10:12:06;28.73;;;19.33;;
12792;SDS011;6460;42.684;23.260;2024-03-02T10:14:35;35.90;;;22.60;;
12792;SDS011;6460;42.684;23.260;2024-03-02T10:17:05;32.33;;;19.83;;
12792;SDS011;6460;42.684;23.260;2024-03-02T10:19:33;33.40;;;21.03;;
12792;SDS011;6460;42.684;23.260;2024-03-02T10:22:02;34.30;;;21.73;;
12792;SDS011;6460;42.684;23.260;2024-03-02T10:24:35;34.53;;;22.27;;
12792;SDS011;6460;42.684;23.260;2024-03-02T10:27:06;38.23;;;24.40;;
12792;SDS011;6460;42.684;23.260;2024-03-02T10:29:38;32.87;;;22.40;;
12792;SDS011;6460;42.684;23.260;2024-03-02T10:32:09;37.90;;;22.47;;
12792;SDS011;6460;42.684;23.260;2024-03-02T10:34:39;35.90;;;23.00;;
12792;SDS011;6460;42.684;23.260;2024-03-02T10:37:06;36.80;;;23.20;;
12792;SDS011;6460;42.684;23.260;2024-03-02T10:39:34;34.63;;;22.10;;
12792;SDS011;6460;42.684;23.260;2024-03-02T10:42:02;35.87;;;22.93;;
12792;SDS011;6460;42.684;23.260;2024-03-02T10:44:31;34.00;;;23.43;;
12792;SDS011;6460;42.684;23.260;2024-03-02T10:47:00;36.87;;;23.03;;
12792;SDS011;6460;42.684;23.260;2024-03-02T10:49:30;37.80;;;24.17;;
12792;SDS011;6460;42.684;23.260;2024-03-02T10:51:58;40.83;;;24.77;;
12792;SDS011;6460;42.684;23.260;2024-03-02T10:54:26;40.03;;;25.57;;
12792;SDS011;6460;42.684;23.260;2024-03-02T10:56:55;40.83;;;26.43;;
12792;SDS011;6460;42.684;23.260;2024-03-02T10:59:27;42.40;;;27.30;;
12792;SDS011;6460;42.684;23.260;2024-03-02T11:01:56;52.90;;;32.77;;
12792;SDS011;6460;42.684;23.260;2024-03-02T11:04:25;49.97;;;32.93;;
12792;SDS011;6460;42.684;23.260;2024-03-02T11:06:56;51.80;;;34.13;;
12792;SDS011;6460;42.684;23.260;2024-03-02T11:09:27;49.93;;;32.37;;
12792;SDS011;6460;42.684;23.260;2024-03-02T11:12:00;49.23;;;31.80;;
12792;SDS011;6460;42.684;23.260;2024-03-02T11:14:31;46.53;;;29.87;;
12792;SDS011;6460;42.684;23.260;2024-03-02T11:17:00;45.40;;;28.20;;
12792;SDS011;6460;42.684;23.260;2024-03-02T11:19:30;38.37;;;26.33;;
12792;SDS011;6460;42.684;23.260;2024-03-02T11:22:01;46.03;;;28.20;;
12792;SDS011;6460;42.684;23.260;2024-03-02T11:24:33;45.33;;;27.63;;
12792;SDS011;6460;42.684;23.260;2024-03-02T11:27:02;40.63;;;25.90;;
12792;SDS011;6460;42.684;23.260;2024-03-02T11:29:45;45.43;;;27.87;;
12792;SDS011;6460;42.684;23.260;2024-03-02T11:32:17;46.73;;;29.77;;
12792;SDS011;6460;42.684;23.260;2024-03-02T11:34:49;42.60;;;27.37;;
12792;SDS011;6460;42.684;23.260;2024-03-02T11:37:19;39.67;;;26.07;;
12792;SDS011;6460;42.684;23.260;2024-03-02T11:39:47;44.80;;;25.93;;
12792;SDS011;6460;42.684;23.260;2024-03-02T11:42:16;38.63;;;26.50;;
12792;SDS011;6460;42.684;23.260;2024-03-02T11:44:45;34.87;;;23.77;;
12792;SDS011;6460;42.684;23.260;2024-03-02T11:47:12;36.20;;;23.40;;
12792;SDS011;6460;42.684;23.260;2024-03-02T11:49:41;35.37;;;22.30;;
12792;SDS011;6460;42.684;23.260;2024-03-02T11:52:10;34.97;;;23.30;;
12792;SDS011;6460;42.684;23.260;2024-03-02T11:54:42;34.53;;;22.83;;
12792;SDS011;6460;42.684;23.260;2024-03-02T11:57:14;33.73;;;23.53;;
12792;SDS011;6460;42.684;23.260;2024-03-02T11:59:42;34.03;;;22.97;;
12792;SDS011;6460;42.684;23.260;2024-03-02T12:02:14;34.10;;;22.43;;
12792;SDS011;6460;42.684;23.260;2024-03-02T12:04:43;30.17;;;21.50;;
12792;SDS011;6460;42.684;23.260;2024-03-02T12:07:11;33.83;;;22.40;;
12792;SDS011;6460;42.684;23.260;2024-03-02T12:09:39;32.83;;;21.50;;
12792;SDS011;6460;42.684;23.260;2024-03-02T12:12:09;32.00;;;21.37;;
12792;SDS011;6460;42.684;23.260;2024-03-02T12:14:37;31.10;;;21.13;;
12792;SDS011;6460;42.684;23.260;2024-03-02T12:17:05;30.03;;;20.87;;
12792;SDS011;6460;42.684;23.260;2024-03-02T12:19:32;30.70;;;20.23;;
12792;SDS011;6460;42.684;23.260;2024-03-02T12:22:00;27.60;;;19.83;;
12792;SDS011;6460;42.684;23.260;2024-03-02T12:24:28;32.13;;;21.03;;
12792;SDS011;6460;42.684;23.260;2024-03-02T12:26:57;32.53;;;23.03;;
12792;SDS011;6460;42.684;23.260;2024-03-02T12:29:25;36.77;;;26.13;;
12792;SDS011;6460;42.684;23.260;2024-03-02T12:31:53;30.80;;;22.83;;
12792;SDS011;6460;42.684;23.260;2024-03-02T12:34:21;34.40;;;22.10;;
12792;SDS011;6460;42.684;23.260;2024-03-02T12:36:48;31.70;;;21.80;;
12792;SDS011;6460;42.684;23.260;2024-03-02T12:39:18;32.47;;;21.77;;
12792;SDS011;6460;42.684;23.260;2024-03-02T12:41:48;31.00;;;20.67;;
12792;SDS011;6460;42.684;23.260;2024-03-02T12:44:17;30.30;;;20.70;;
12792;SDS011;6460;42.684;23.260;2024-03-02T12:46:45;29.00;;;21.00;;
12792;SDS011;6460;42.684;23.260;2024-03-02T12:49:13;29.77;;;20.20;;
12792;SDS011;6460;42.684;23.260;2024-03-02T12:51:42;31.70;;;20.40;;
12792;SDS011;6460;42.684;23.260;2024-03-02T12:54:12;31.67;;;21.53;;
12792;SDS011;6460;42.684;23.260;2024-03-02T12:56:41;28.10;;;20.10;;
12792;SDS011;6460;42.684;23.260;2024-03-02T12:59:18;28.23;;;19.50;;
12792;SDS011;6460;42.684;23.260;2024-03-02T13:01:50;30.07;;;21.33;;
12792;SDS011;6460;42.684;23.260;2024-03-02T13:04:21;29.40;;;21.03;;
12792;SDS011;6460;42.684;23.260;2024-03-02T13:06:49;31.00;;;20.20;;
12792;SDS011;6460;42.684;23.260;2024-03-02T13:09:18;28.47;;;20.63;;
12792;SDS011;6460;42.684;23.260;2024-03-02T13:11:46;29.70;;;20.73;;
12792;SDS011;6460;42.684;23.260;2024-03-02T13:14:15;30.00;;;20.73;;
12792;SDS011;6460;42.684;23.260;2024-03-02T13:16:44;33.27;;;21.10;;
12792;SDS011;6460;42.684;23.260;2024-03-02T13:19:13;32.57;;;21.03;;
12792;SDS011;6460;42.684;23.260;2024-03-02T13:21:41;30.03;;;21.57;;
12792;SDS011;6460;42.684;23.260;2024-03-02T13:24:08;29.60;;;20.70;;
12792;SDS011;6460;42.684;23.260;2024-03-02T13:26:36;29.87;;;20.90;;
12792;SDS011;6460;42.684;23.260;2024-03-02T13:29:03;29.60;;;21.40;;
12792;SDS011;6460;42.684;23.260;2024-03-02T13:31:30;30.97;;;21.97;;
12792;SDS011;6460;42.684;23.260;2024-03-02T13:33:59;30.07;;;20.80;;
12792;SDS011;6460;42.684;23.260;2024-03-02T13:36:27;31.80;;;23.40;;
12792;SDS011;6460;42.684;23.260;2024-03-02T13:38:54;33.07;;;21.77;;
12792;SDS011;6460;42.684;23.260;2024-03-02T13:41:23;30.33;;;21.70;;
12792;SDS011;6460;42.684;23.260;2024-03-02T13:43:50;32.67;;;22.13;;
12792;SDS011;6460;42.684;23.260;2024-03-02T13:46:18;30.00;;;20.87;;
12792;SDS011;6460;42.684;23.260;2024-03-02T13:48:46;30.07;;;21.13;;
12792;SDS011;6460;42.684;23.260;2024-03-02T13:51:15;36.00;;;25.93;;
12792;SDS011;6460;42.684;23.260;2024-03-02T13:53:43;39.00;;;26.70;;
12792;SDS011;6460;42.684;23.260;2024-03-02T13:56:10;34.57;;;24.23;;
12792;SDS011;6460;42.684;23.260;2024-03-02T13:58:38;36.70;;;23.80;;
12792;SDS011;6460;42.684;23.260;2024-03-02T14:01:06;33.07;;;23.53;;
12792;SDS011;6460;42.684;23.260;2024-03-02T14:03:33;30.83;;;22.77;;
12792;SDS011;6460;42.684;23.260;2024-03-02T14:06:01;33.30;;;22.57;;
12792;SDS011;6460;42.684;23.260;2024-03-02T14:08:30;35.27;;;23.97;;
12792;SDS011;6460;42.684;23.260;2024-03-02T14:10:59;38.00;;;25.93;;
12792;SDS011;6460;42.684;23.260;2024-03-02T14:13:27;36.03;;;27.07;;
12792;SDS011;6460;42.684;23.260;2024-03-02T14:15:55;38.07;;;26.10;;
12792;SDS011;6460;42.684;23.260;2024-03-02T14:18:23;34.17;;;25.33;;
12792;SDS011;6460;42.684;23.260;2024-03-02T14:20:50;35.77;;;25.20;;
12792;SDS011;6460;42.684;23.260;2024-03-02T14:23:18;35.93;;;25.10;;
12792;SDS011;6460;42.684;23.260;2024-03-02T14:25:47;37.70;;;24.67;;
12792;SDS011;6460;42.684;23.260;2024-03-02T14:28:15;33.83;;;24.30;;
12792;SDS011;6460;42.684;23.260;2024-03-02T14:30:43;36.10;;;24.30;;
12792;SDS011;6460;42.684;23.260;2024-03-02T14:33:10;36.03;;;25.57;;